Laughlin Air Force Base
KDLF : now visible

Airfield :











YOU CAN JOIN US ON...

 
LOGIN :

Register | Disclaimer

   EN    FR    IT 

 









Legend :    VFR   Marginal VFR   IFR   Intensive IFR   Very Intensive IFR
Visi :
Ceiling :
>= 8 km
>= 3000ft
5 to 8 km
1000 to 3000 ft
1500m to 5 km
500 to 1000 ft
800 to 1500m
200 to 500 ft
< 800m
< 200 ft
Symbols :   Thunderstorms  Fog  Heavy snow  Heavy precipitations  Wind > 20 kt






- Airport Elevation : 1082 ft


KDLF - Laughlin Air Force Base

CURRENT METAR :
  • 041556Z AUTO 15010KT 10SM CLR 31/20 A3004 RMK AO2 SLP158 T03130202 CHINO RWY31 $

EXPIRED METARs :
  • 041456Z AUTO 13010KT 10SM CLR 28/21 A3004 RMK AO2 SLP159 T02830213 52012 CHINO RWY31 $
  • 041356Z AUTO 14010KT 10SM CLR 26/21 A3003 RMK AO2 SLP156 T02600212 CHINO RWY31 $

TAF TAF KDLF
Valid from the 04 at 11:00 until the 05 at 17:00 UTC


041100Z 0411/0517 11009KT 9999 FEW075 FEW250 QNH2999INS
BECMG 0414/0415 14009KT 9999 FEW090 SCT250 QNH3002INS
BECMG 0417/0418 16010G15KT 9999 SKC QNH3000INS TX39/0421Z TN24/0411Z
KZHU FIR / North America



MET'MAP, your aeronautical weather chart ! - Copyright ORBIFLY December 2007 - Disclaimer

ORBIFLY MET'MAP TEAM :

Programming & Development : Alexandra Zaïnal
Concept & original design : Baudouin d'Aumeries
Assistance for programming : Marc-Olivier Méhu
Technical & hardware support : Manuel Goepfert

Contact : metmap@orbifly.com




SOURCES & CREDITS :

   NOAA       Earth
Advisory